sensor_id;sensor_type;location;lat;lon;timestamp;temperature;humidity
15765;DHT22;7983;50.744;7.086;2023-05-07T00:01:38;16.40;99.90
15765;DHT22;7983;50.744;7.086;2023-05-07T00:04:06;16.40;99.90
15765;DHT22;7983;50.744;7.086;2023-05-07T00:06:33;16.40;99.90
15765;DHT22;7983;50.744;7.086;2023-05-07T00:08:59;16.40;99.90
15765;DHT22;7983;50.744;7.086;2023-05-07T00:11:25;16.30;99.90
15765;DHT22;7983;50.744;7.086;2023-05-07T00:13:53;16.30;99.90
15765;DHT22;7983;50.744;7.086;2023-05-07T00:16:21;16.30;99.90
15765;DHT22;7983;50.744;7.086;2023-05-07T00:18:48;16.30;99.90
15765;DHT22;7983;50.744;7.086;2023-05-07T00:21:18;16.30;99.90
15765;DHT22;7983;50.744;7.086;2023-05-07T00:23:44;16.30;99.90
15765;DHT22;7983;50.744;7.086;2023-05-07T00:26:10;16.20;99.90
15765;DHT22;7983;50.744;7.086;2023-05-07T00:28:38;16.20;99.90
15765;DHT22;7983;50.744;7.086;2023-05-07T00:31:03;16.20;99.90
15765;DHT22;7983;50.744;7.086;2023-05-07T00:33:29;16.20;99.90
15765;DHT22;7983;50.744;7.086;2023-05-07T00:35:55;16.20;99.90
15765;DHT22;7983;50.744;7.086;2023-05-07T00:38:20;16.10;99.90
15765;DHT22;7983;50.744;7.086;2023-05-07T00:40:46;16.20;99.90
15765;DHT22;7983;50.744;7.086;2023-05-07T00:43:12;16.20;99.90
15765;DHT22;7983;50.744;7.086;2023-05-07T00:45:40;16.10;99.90
15765;DHT22;7983;50.744;7.086;2023-05-07T00:48:08;16.20;99.90
15765;DHT22;7983;50.744;7.086;2023-05-07T00:50:34;16.20;99.90
15765;DHT22;7983;50.744;7.086;2023-05-07T00:53:02;16.20;99.90
15765;DHT22;7983;50.744;7.086;2023-05-07T00:55:32;16.20;99.90
15765;DHT22;7983;50.744;7.086;2023-05-07T00:58:00;16.20;99.90
15765;DHT22;7983;50.744;7.086;2023-05-07T01:00:26;16.20;99.90
15765;DHT22;7983;50.744;7.086;2023-05-07T01:02:52;16.20;99.90
15765;DHT22;7983;50.744;7.086;2023-05-07T01:05:19;16.20;99.90
15765;DHT22;7983;50.744;7.086;2023-05-07T01:07:46;16.20;99.90
15765;DHT22;7983;50.744;7.086;2023-05-07T01:10:12;16.20;99.90
15765;DHT22;7983;50.744;7.086;2023-05-07T01:12:39;16.20;99.90
15765;DHT22;7983;50.744;7.086;2023-05-07T01:15:06;16.20;99.90
15765;DHT22;7983;50.744;7.086;2023-05-07T01:17:36;16.20;99.90
15765;DHT22;7983;50.744;7.086;2023-05-07T01:20:05;16.20;99.90
15765;DHT22;7983;50.744;7.086;2023-05-07T01:22:39;16.20;99.90
15765;DHT22;7983;50.744;7.086;2023-05-07T01:25:06;16.20;99.90
15765;DHT22;7983;50.744;7.086;2023-05-07T01:27:35;16.30;99.90
15765;DHT22;7983;50.744;7.086;2023-05-07T01:30:02;16.30;99.90
15765;DHT22;7983;50.744;7.086;2023-05-07T01:32:35;16.20;99.90
15765;DHT22;7983;50.744;7.086;2023-05-07T01:35:05;16.30;99.90
15765;DHT22;7983;50.744;7.086;2023-05-07T01:37:33;16.20;99.90
15765;DHT22;7983;50.744;7.086;2023-05-07T01:39:59;16.20;99.90
15765;DHT22;7983;50.744;7.086;2023-05-07T01:42:29;16.20;99.90
15765;DHT22;7983;50.744;7.086;2023-05-07T01:44:55;16.20;99.90
15765;DHT22;7983;50.744;7.086;2023-05-07T01:47:21;16.20;99.90
15765;DHT22;7983;50.744;7.086;2023-05-07T01:49:47;16.10;99.90
15765;DHT22;7983;50.744;7.086;2023-05-07T01:52:12;16.20;99.90
15765;DHT22;7983;50.744;7.086;2023-05-07T01:54:40;16.20;99.90
15765;DHT22;7983;50.744;7.086;2023-05-07T01:57:06;16.20;99.90
15765;DHT22;7983;50.744;7.086;2023-05-07T01:59:32;16.20;99.90
15765;DHT22;7983;50.744;7.086;2023-05-07T02:01:59;16.20;99.90
15765;DHT22;7983;50.744;7.086;2023-05-07T02:04:26;16.20;99.90
15765;DHT22;7983;50.744;7.086;2023-05-07T02:06:55;16.20;99.90
15765;DHT22;7983;50.744;7.086;2023-05-07T02:09:21;16.10;99.90
15765;DHT22;7983;50.744;7.086;2023-05-07T02:11:49;16.10;99.90
15765;DHT22;7983;50.744;7.086;2023-05-07T02:14:17;16.10;99.90
15765;DHT22;7983;50.744;7.086;2023-05-07T02:16:42;16.10;99.90
15765;DHT22;7983;50.744;7.086;2023-05-07T02:19:08;16.10;99.90
15765;DHT22;7983;50.744;7.086;2023-05-07T02:21:36;16.10;99.90
15765;DHT22;7983;50.744;7.086;2023-05-07T02:24:04;16.10;99.90
15765;DHT22;7983;50.744;7.086;2023-05-07T02:26:32;16.10;99.90
15765;DHT22;7983;50.744;7.086;2023-05-07T02:28:59;16.10;99.90
15765;DHT22;7983;50.744;7.086;2023-05-07T02:31:25;16.10;99.90
15765;DHT22;7983;50.744;7.086;2023-05-07T02:33:50;16.00;99.90
15765;DHT22;7983;50.744;7.086;2023-05-07T02:36:18;16.00;99.90
15765;DHT22;7983;50.744;7.086;2023-05-07T02:38:44;16.00;99.90
15765;DHT22;7983;50.744;7.086;2023-05-07T02:41:10;16.00;99.90
15765;DHT22;7983;50.744;7.086;2023-05-07T02:43:35;16.00;99.90
15765;DHT22;7983;50.744;7.086;2023-05-07T02:46:08;16.00;99.90
15765;DHT22;7983;50.744;7.086;2023-05-07T02:48:34;16.00;99.90
15765;DHT22;7983;50.744;7.086;2023-05-07T02:51:02;15.90;99.90
15765;DHT22;7983;50.744;7.086;2023-05-07T02:53:28;15.90;99.90
15765;DHT22;7983;50.744;7.086;2023-05-07T02:55:56;15.90;99.90
15765;DHT22;7983;50.744;7.086;2023-05-07T02:58:25;15.90;99.90
15765;DHT22;7983;50.744;7.086;2023-05-07T03:00:51;15.90;99.90
15765;DHT22;7983;50.744;7.086;2023-05-07T03:03:17;15.90;99.90
15765;DHT22;7983;50.744;7.086;2023-05-07T03:05:45;15.90;99.90
15765;DHT22;7983;50.744;7.086;2023-05-07T03:08:11;15.90;99.90
15765;DHT22;7983;50.744;7.086;2023-05-07T03:10:37;15.90;99.90
15765;DHT22;7983;50.744;7.086;2023-05-07T03:13:03;15.90;99.90
15765;DHT22;7983;50.744;7.086;2023-05-07T03:15:31;15.90;99.90
15765;DHT22;7983;50.744;7.086;2023-05-07T03:17:56;15.90;99.90
15765;DHT22;7983;50.744;7.086;2023-05-07T03:20:24;15.90;99.90
15765;DHT22;7983;50.744;7.086;2023-05-07T03:22:50;15.90;99.90
15765;DHT22;7983;50.744;7.086;2023-05-07T03:25:17;15.90;99.90
15765;DHT22;7983;50.744;7.086;2023-05-07T03:27:43;15.90;99.90
15765;DHT22;7983;50.744;7.086;2023-05-07T03:30:09;15.90;99.90
15765;DHT22;7983;50.744;7.086;2023-05-07T03:32:36;15.80;99.90
15765;DHT22;7983;50.744;7.086;2023-05-07T03:35:01;15.80;99.90
15765;DHT22;7983;50.744;7.086;2023-05-07T03:37:30;15.90;99.90
15765;DHT22;7983;50.744;7.086;2023-05-07T03:39:58;15.80;99.90
15765;DHT22;7983;50.744;7.086;2023-05-07T03:42:23;15.80;99.90
15765;DHT22;7983;50.744;7.086;2023-05-07T03:44:51;15.80;99.90
15765;DHT22;7983;50.744;7.086;2023-05-07T03:47:17;15.80;99.90
15765;DHT22;7983;50.744;7.086;2023-05-07T03:49:42;15.80;99.90
15765;DHT22;7983;50.744;7.086;2023-05-07T03:52:08;15.80;99.90
15765;DHT22;7983;50.744;7.086;2023-05-07T03:54:36;15.80;99.90
15765;DHT22;7983;50.744;7.086;2023-05-07T03:57:02;15.80;99.90
15765;DHT22;7983;50.744;7.086;2023-05-07T03:59:29;15.80;99.90
15765;DHT22;7983;50.744;7.086;2023-05-07T04:01:57;15.80;99.90
15765;DHT22;7983;50.744;7.086;2023-05-07T04:04:26;15.80;99.90
15765;DHT22;7983;50.744;7.086;2023-05-07T04:06:51;15.80;99.90
15765;DHT22;7983;50.744;7.086;2023-05-07T04:09:17;15.90;99.90
15765;DHT22;7983;50.744;7.086;2023-05-07T04:11:42;15.80;99.90
15765;DHT22;7983;50.744;7.086;2023-05-07T04:14:08;15.80;99.90
15765;DHT22;7983;50.744;7.086;2023-05-07T04:16:37;15.80;99.90
15765;DHT22;7983;50.744;7.086;2023-05-07T04:19:05;15.80;99.90
15765;DHT22;7983;50.744;7.086;2023-05-07T04:21:31;15.90;99.90
15765;DHT22;7983;50.744;7.086;2023-05-07T04:23:56;15.90;99.90
15765;DHT22;7983;50.744;7.086;2023-05-07T04:26:22;15.90;99.90
15765;DHT22;7983;50.744;7.086;2023-05-07T04:28:52;15.90;99.90
15765;DHT22;7983;50.744;7.086;2023-05-07T04:31:17;15.90;99.90
15765;DHT22;7983;50.744;7.086;2023-05-07T04:33:47;15.90;99.90
15765;DHT22;7983;50.744;7.086;2023-05-07T04:36:16;15.90;99.90
15765;DHT22;7983;50.744;7.086;2023-05-07T04:38:41;15.90;99.90
15765;DHT22;7983;50.744;7.086;2023-05-07T04:41:08;15.90;99.90
15765;DHT22;7983;50.744;7.086;2023-05-07T04:43:34;15.90;99.90
15765;DHT22;7983;50.744;7.086;2023-05-07T04:46:00;15.90;99.90
15765;DHT22;7983;50.744;7.086;2023-05-07T04:48:26;15.90;99.90
15765;DHT22;7983;50.744;7.086;2023-05-07T04:50:51;15.90;99.90
15765;DHT22;7983;50.744;7.086;2023-05-07T04:53:20;15.90;99.90
15765;DHT22;7983;50.744;7.086;2023-05-07T04:55:46;15.90;99.90
15765;DHT22;7983;50.744;7.086;2023-05-07T04:58:14;15.90;99.90
15765;DHT22;7983;50.744;7.086;2023-05-07T05:00:41;15.90;99.90
15765;DHT22;7983;50.744;7.086;2023-05-07T05:03:10;15.90;99.90
15765;DHT22;7983;50.744;7.086;2023-05-07T05:05:36;15.90;99.90
15765;DHT22;7983;50.744;7.086;2023-05-07T05:08:04;15.90;99.90
15765;DHT22;7983;50.744;7.086;2023-05-07T05:10:29;15.90;99.90
15765;DHT22;7983;50.744;7.086;2023-05-07T05:12:55;16.00;99.90
15765;DHT22;7983;50.744;7.086;2023-05-07T05:15:21;16.00;99.90
15765;DHT22;7983;50.744;7.086;2023-05-07T05:17:51;16.00;99.90
15765;DHT22;7983;50.744;7.086;2023-05-07T05:20:19;16.00;99.90
15765;DHT22;7983;50.744;7.086;2023-05-07T05:22:45;16.10;99.90
15765;DHT22;7983;50.744;7.086;2023-05-07T05:25:10;16.10;99.90
15765;DHT22;7983;50.744;7.086;2023-05-07T05:27:40;16.20;99.90
15765;DHT22;7983;50.744;7.086;2023-05-07T05:30:09;16.20;99.90
15765;DHT22;7983;50.744;7.086;2023-05-07T05:32:35;16.20;99.90
15765;DHT22;7983;50.744;7.086;2023-05-07T05:35:03;16.30;99.90
15765;DHT22;7983;50.744;7.086;2023-05-07T05:37:32;16.30;99.90
15765;DHT22;7983;50.744;7.086;2023-05-07T05:39:57;16.40;99.90
15765;DHT22;7983;50.744;7.086;2023-05-07T05:42:23;16.50;99.90
15765;DHT22;7983;50.744;7.086;2023-05-07T05:44:50;16.50;99.90
15765;DHT22;7983;50.744;7.086;2023-05-07T05:47:18;16.50;99.90
15765;DHT22;7983;50.744;7.086;2023-05-07T05:49:44;16.60;99.90
15765;DHT22;7983;50.744;7.086;2023-05-07T05:52:12;16.70;99.90
15765;DHT22;7983;50.744;7.086;2023-05-07T05:54:38;16.70;99.90
15765;DHT22;7983;50.744;7.086;2023-05-07T05:57:08;16.70;99.90
15765;DHT22;7983;50.744;7.086;2023-05-07T05:59:36;16.70;99.90
15765;DHT22;7983;50.744;7.086;2023-05-07T06:02:01;16.70;99.90
15765;DHT22;7983;50.744;7.086;2023-05-07T06:04:27;16.80;99.90
15765;DHT22;7983;50.744;7.086;2023-05-07T06:06:53;16.80;99.90
15765;DHT22;7983;50.744;7.086;2023-05-07T06:09:18;16.80;99.90
15765;DHT22;7983;50.744;7.086;2023-05-07T06:11:47;16.90;99.90
15765;DHT22;7983;50.744;7.086;2023-05-07T06:14:12;17.00;99.90
15765;DHT22;7983;50.744;7.086;2023-05-07T06:16:40;17.10;99.90
15765;DHT22;7983;50.744;7.086;2023-05-07T06:19:06;17.10;99.90
15765;DHT22;7983;50.744;7.086;2023-05-07T06:21:31;17.20;99.90
15765;DHT22;7983;50.744;7.086;2023-05-07T06:23:59;17.30;99.90
15765;DHT22;7983;50.744;7.086;2023-05-07T06:26:27;17.40;99.90
15765;DHT22;7983;50.744;7.086;2023-05-07T06:28:55;17.40;99.90
15765;DHT22;7983;50.744;7.086;2023-05-07T06:31:28;17.50;99.90
15765;DHT22;7983;50.744;7.086;2023-05-07T06:33:54;17.60;99.90
15765;DHT22;7983;50.744;7.086;2023-05-07T06:36:20;17.60;99.90
15765;DHT22;7983;50.744;7.086;2023-05-07T06:38:48;17.70;99.90
15765;DHT22;7983;50.744;7.086;2023-05-07T06:41:14;17.80;99.90
15765;DHT22;7983;50.744;7.086;2023-05-07T06:43:39;17.80;99.90
15765;DHT22;7983;50.744;7.086;2023-05-07T06:46:07;17.90;99.90
15765;DHT22;7983;50.744;7.086;2023-05-07T06:48:35;17.90;99.90
15765;DHT22;7983;50.744;7.086;2023-05-07T06:51:01;18.00;99.90
15765;DHT22;7983;50.744;7.086;2023-05-07T06:53:27;18.00;99.90
15765;DHT22;7983;50.744;7.086;2023-05-07T06:55:56;18.10;99.90
15765;DHT22;7983;50.744;7.086;2023-05-07T06:58:22;18.20;99.90
15765;DHT22;7983;50.744;7.086;2023-05-07T07:00:47;18.30;99.90
15765;DHT22;7983;50.744;7.086;2023-05-07T07:03:15;18.30;99.90
15765;DHT22;7983;50.744;7.086;2023-05-07T07:05:45;18.40;99.90
15765;DHT22;7983;50.744;7.086;2023-05-07T07:08:11;18.40;99.90
15765;DHT22;7983;50.744;7.086;2023-05-07T07:10:40;18.50;99.90
15765;DHT22;7983;50.744;7.086;2023-05-07T07:13:08;18.60;99.90
15765;DHT22;7983;50.744;7.086;2023-05-07T07:15:33;18.60;99.90
15765;DHT22;7983;50.744;7.086;2023-05-07T07:17:59;18.70;99.90
15765;DHT22;7983;50.744;7.086;2023-05-07T07:20:24;18.70;99.90
15765;DHT22;7983;50.744;7.086;2023-05-07T07:22:53;18.80;99.90
15765;DHT22;7983;50.744;7.086;2023-05-07T07:25:18;18.90;99.90
15765;DHT22;7983;50.744;7.086;2023-05-07T07:27:46;18.90;99.90
15765;DHT22;7983;50.744;7.086;2023-05-07T07:30:12;19.00;99.90
15765;DHT22;7983;50.744;7.086;2023-05-07T07:32:38;19.00;99.90
15765;DHT22;7983;50.744;7.086;2023-05-07T07:35:06;19.10;99.90
15765;DHT22;7983;50.744;7.086;2023-05-07T07:37:32;19.20;99.90
15765;DHT22;7983;50.744;7.086;2023-05-07T07:39:57;19.20;99.90
15765;DHT22;7983;50.744;7.086;2023-05-07T07:42:25;19.30;99.90
15765;DHT22;7983;50.744;7.086;2023-05-07T07:44:51;19.30;99.90
15765;DHT22;7983;50.744;7.086;2023-05-07T07:47:18;19.30;99.90
15765;DHT22;7983;50.744;7.086;2023-05-07T07:49:44;19.40;99.90
15765;DHT22;7983;50.744;7.086;2023-05-07T07:52:12;19.50;99.90
15765;DHT22;7983;50.744;7.086;2023-05-07T07:54:40;19.60;99.90
15765;DHT22;7983;50.744;7.086;2023-05-07T07:57:08;19.60;99.90
15765;DHT22;7983;50.744;7.086;2023-05-07T07:59:33;19.70;99.90
15765;DHT22;7983;50.744;7.086;2023-05-07T08:01:59;19.80;99.90
15765;DHT22;7983;50.744;7.086;2023-05-07T08:04:24;19.80;99.90
15765;DHT22;7983;50.744;7.086;2023-05-07T08:06:52;19.90;99.90
15765;DHT22;7983;50.744;7.086;2023-05-07T08:09:23;19.90;99.90
15765;DHT22;7983;50.744;7.086;2023-05-07T08:11:51;20.00;99.90
15765;DHT22;7983;50.744;7.086;2023-05-07T08:14:17;20.10;99.90
15765;DHT22;7983;50.744;7.086;2023-05-07T08:16:44;20.10;99.90
15765;DHT22;7983;50.744;7.086;2023-05-07T08:19:10;20.20;99.90
15765;DHT22;7983;50.744;7.086;2023-05-07T08:21:41;20.20;99.90
15765;DHT22;7983;50.744;7.086;2023-05-07T08:24:07;20.30;99.90
15765;DHT22;7983;50.744;7.086;2023-05-07T08:26:37;20.40;99.90
15765;DHT22;7983;50.744;7.086;2023-05-07T08:29:04;20.50;99.90
15765;DHT22;7983;50.744;7.086;2023-05-07T08:31:30;20.60;99.90
15765;DHT22;7983;50.744;7.086;2023-05-07T08:33:58;20.70;99.90
15765;DHT22;7983;50.744;7.086;2023-05-07T08:36:24;20.70;99.90
15765;DHT22;7983;50.744;7.086;2023-05-07T08:38:56;20.70;99.90
15765;DHT22;7983;50.744;7.086;2023-05-07T08:41:24;20.80;99.90
15765;DHT22;7983;50.744;7.086;2023-05-07T08:43:50;20.80;99.90
15765;DHT22;7983;50.744;7.086;2023-05-07T08:46:20;20.90;99.90
15765;DHT22;7983;50.744;7.086;2023-05-07T08:48:52;20.90;99.90
15765;DHT22;7983;50.744;7.086;2023-05-07T08:51:21;21.00;99.90
15765;DHT22;7983;50.744;7.086;2023-05-07T08:53:48;21.00;99.90
15765;DHT22;7983;50.744;7.086;2023-05-07T08:56:15;21.00;99.90
15765;DHT22;7983;50.744;7.086;2023-05-07T08:58:42;21.10;99.90
15765;DHT22;7983;50.744;7.086;2023-05-07T09:01:14;21.10;99.90
15765;DHT22;7983;50.744;7.086;2023-05-07T09:03:40;21.10;99.90
15765;DHT22;7983;50.744;7.086;2023-05-07T09:06:08;21.20;99.90
15765;DHT22;7983;50.744;7.086;2023-05-07T09:08:34;21.20;99.90
15765;DHT22;7983;50.744;7.086;2023-05-07T09:11:00;21.30;99.90
15765;DHT22;7983;50.744;7.086;2023-05-07T09:13:27;21.40;99.90
15765;DHT22;7983;50.744;7.086;2023-05-07T09:15:58;21.40;99.90
15765;DHT22;7983;50.744;7.086;2023-05-07T09:18:25;21.50;99.90
15765;DHT22;7983;50.744;7.086;2023-05-07T09:20:51;21.60;99.90
15765;DHT22;7983;50.744;7.086;2023-05-07T09:23:24;21.60;99.90
15765;DHT22;7983;50.744;7.086;2023-05-07T09:25:49;21.70;99.90
15765;DHT22;7983;50.744;7.086;2023-05-07T09:28:15;21.80;99.90
15765;DHT22;7983;50.744;7.086;2023-05-07T09:30:41;21.90;99.90
15765;DHT22;7983;50.744;7.086;2023-05-07T09:33:09;22.00;99.90
15765;DHT22;7983;50.744;7.086;2023-05-07T09:35:34;22.10;99.90
15765;DHT22;7983;50.744;7.086;2023-05-07T09:38:03;22.30;99.90
15765;DHT22;7983;50.744;7.086;2023-05-07T09:40:30;22.40;99.90
15765;DHT22;7983;50.744;7.086;2023-05-07T09:42:56;22.50;99.90
15765;DHT22;7983;50.744;7.086;2023-05-07T09:45:30;22.60;99.90
15765;DHT22;7983;50.744;7.086;2023-05-07T09:48:00;22.70;99.90
15765;DHT22;7983;50.744;7.086;2023-05-07T09:50:36;22.80;99.90
15765;DHT22;7983;50.744;7.086;2023-05-07T09:53:04;22.90;99.90
15765;DHT22;7983;50.744;7.086;2023-05-07T09:55:30;23.00;99.90
15765;DHT22;7983;50.744;7.086;2023-05-07T09:57:57;23.10;99.90
15765;DHT22;7983;50.744;7.086;2023-05-07T10:00:25;23.20;99.90
15765;DHT22;7983;50.744;7.086;2023-05-07T10:02:56;23.30;99.90
15765;DHT22;7983;50.744;7.086;2023-05-07T10:05:22;23.30;99.90
15765;DHT22;7983;50.744;7.086;2023-05-07T10:07:48;23.30;99.90
15765;DHT22;7983;50.744;7.086;2023-05-07T10:10:16;23.40;99.90
15765;DHT22;7983;50.744;7.086;2023-05-07T10:12:45;23.40;99.90
15765;DHT22;7983;50.744;7.086;2023-05-07T10:15:11;23.40;99.90
15765;DHT22;7983;50.744;7.086;2023-05-07T10:17:38;23.40;99.90
15765;DHT22;7983;50.744;7.086;2023-05-07T10:20:10;23.60;99.90
15765;DHT22;7983;50.744;7.086;2023-05-07T10:22:45;23.70;99.90
15765;DHT22;7983;50.744;7.086;2023-05-07T10:25:18;23.90;99.90
15765;DHT22;7983;50.744;7.086;2023-05-07T10:27:50;24.00;99.90
15765;DHT22;7983;50.744;7.086;2023-05-07T10:33:09;24.20;99.90
15765;DHT22;7983;50.744;7.086;2023-05-07T10:35:44;24.30;99.90
15765;DHT22;7983;50.744;7.086;2023-05-07T10:38:13;24.30;99.90
15765;DHT22;7983;50.744;7.086;2023-05-07T10:40:38;24.50;99.90
15765;DHT22;7983;50.744;7.086;2023-05-07T10:43:05;24.70;99.90
15765;DHT22;7983;50.744;7.086;2023-05-07T10:45:35;24.80;99.90
15765;DHT22;7983;50.744;7.086;2023-05-07T10:48:12;24.90;99.90
15765;DHT22;7983;50.744;7.086;2023-05-07T10:50:41;25.10;99.90
15765;DHT22;7983;50.744;7.086;2023-05-07T10:55:47;25.30;99.90
15765;DHT22;7983;50.744;7.086;2023-05-07T10:58:39;25.40;99.90
15765;DHT22;7983;50.744;7.086;2023-05-07T11:01:07;25.60;99.90
15765;DHT22;7983;50.744;7.086;2023-05-07T11:10:00;25.90;99.90
15765;DHT22;7983;50.744;7.086;2023-05-07T11:15:07;26.10;99.90
15765;DHT22;7983;50.744;7.086;2023-05-07T11:17:51;26.20;99.90
15765;DHT22;7983;50.744;7.086;2023-05-07T11:20:19;26.30;99.90
15765;DHT22;7983;50.744;7.086;2023-05-07T11:22:47;26.40;99.90
15765;DHT22;7983;50.744;7.086;2023-05-07T11:25:19;26.50;99.90
15765;DHT22;7983;50.744;7.086;2023-05-07T11:27:49;26.60;99.90
15765;DHT22;7983;50.744;7.086;2023-05-07T11:30:21;26.60;99.90
15765;DHT22;7983;50.744;7.086;2023-05-07T11:32:47;26.50;99.90
15765;DHT22;7983;50.744;7.086;2023-05-07T11:35:17;26.60;99.90
15765;DHT22;7983;50.744;7.086;2023-05-07T11:37:44;26.60;99.90
15765;DHT22;7983;50.744;7.086;2023-05-07T11:40:10;26.60;99.90
15765;DHT22;7983;50.744;7.086;2023-05-07T11:42:39;26.70;99.90
15765;DHT22;7983;50.744;7.086;2023-05-07T11:45:06;26.70;99.90
15765;DHT22;7983;50.744;7.086;2023-05-07T11:47:33;26.70;99.90
15765;DHT22;7983;50.744;7.086;2023-05-07T11:50:08;26.70;99.90
15765;DHT22;7983;50.744;7.086;2023-05-07T11:52:36;26.70;99.90
15765;DHT22;7983;50.744;7.086;2023-05-07T11:55:03;26.60;99.90
15765;DHT22;7983;50.744;7.086;2023-05-07T11:57:33;26.50;99.90
15765;DHT22;7983;50.744;7.086;2023-05-07T11:59:59;26.40;99.90
15765;DHT22;7983;50.744;7.086;2023-05-07T12:02:28;26.30;99.90
15765;DHT22;7983;50.744;7.086;2023-05-07T12:04:54;26.20;99.90
15765;DHT22;7983;50.744;7.086;2023-05-07T12:07:23;26.00;99.90
15765;DHT22;7983;50.744;7.086;2023-05-07T12:09:50;26.00;99.90
15765;DHT22;7983;50.744;7.086;2023-05-07T12:12:15;25.80;99.90
15765;DHT22;7983;50.744;7.086;2023-05-07T12:14:43;25.70;99.90
15765;DHT22;7983;50.744;7.086;2023-05-07T12:17:11;25.60;99.90
15765;DHT22;7983;50.744;7.086;2023-05-07T12:19:40;25.50;99.90
15765;DHT22;7983;50.744;7.086;2023-05-07T12:22:15;25.30;99.90
15765;DHT22;7983;50.744;7.086;2023-05-07T12:24:48;25.20;99.90
15765;DHT22;7983;50.744;7.086;2023-05-07T12:27:15;25.10;99.90
15765;DHT22;7983;50.744;7.086;2023-05-07T12:29:49;24.90;99.90
15765;DHT22;7983;50.744;7.086;2023-05-07T12:32:19;24.80;99.90
15765;DHT22;7983;50.744;7.086;2023-05-07T12:34:45;24.70;99.90
15765;DHT22;7983;50.744;7.086;2023-05-07T12:37:12;24.50;99.90
15765;DHT22;7983;50.744;7.086;2023-05-07T12:39:38;24.50;99.90
15765;DHT22;7983;50.744;7.086;2023-05-07T12:42:04;24.30;99.90
15765;DHT22;7983;50.744;7.086;2023-05-07T12:44:32;24.20;99.90
15765;DHT22;7983;50.744;7.086;2023-05-07T12:47:01;24.20;99.90
15765;DHT22;7983;50.744;7.086;2023-05-07T12:49:29;24.10;99.90
15765;DHT22;7983;50.744;7.086;2023-05-07T12:51:55;24.00;99.90
15765;DHT22;7983;50.744;7.086;2023-05-07T12:54:31;24.00;99.90
15765;DHT22;7983;50.744;7.086;2023-05-07T12:57:07;23.90;99.90
15765;DHT22;7983;50.744;7.086;2023-05-07T12:59:36;23.90;99.90
15765;DHT22;7983;50.744;7.086;2023-05-07T13:02:05;23.80;99.90
15765;DHT22;7983;50.744;7.086;2023-05-07T13:04:33;23.80;99.90
15765;DHT22;7983;50.744;7.086;2023-05-07T13:07:00;23.70;99.90
15765;DHT22;7983;50.744;7.086;2023-05-07T13:09:28;23.70;99.90
15765;DHT22;7983;50.744;7.086;2023-05-07T13:11:55;23.50;99.90
15765;DHT22;7983;50.744;7.086;2023-05-07T13:14:20;23.50;99.90
15765;DHT22;7983;50.744;7.086;2023-05-07T13:16:47;23.40;99.90
15765;DHT22;7983;50.744;7.086;2023-05-07T13:19:17;23.30;99.90
15765;DHT22;7983;50.744;7.086;2023-05-07T13:21:43;23.30;99.90
15765;DHT22;7983;50.744;7.086;2023-05-07T13:24:09;23.30;99.90
15765;DHT22;7983;50.744;7.086;2023-05-07T13:26:36;23.20;99.90
15765;DHT22;7983;50.744;7.086;2023-05-07T13:29:02;23.20;99.90
15765;DHT22;7983;50.744;7.086;2023-05-07T13:31:30;23.20;99.90
15765;DHT22;7983;50.744;7.086;2023-05-07T13:33:59;23.20;99.90
15765;DHT22;7983;50.744;7.086;2023-05-07T13:36:24;23.20;99.90
15765;DHT22;7983;50.744;7.086;2023-05-07T13:38:53;23.20;99.90
15765;DHT22;7983;50.744;7.086;2023-05-07T13:41:21;23.30;99.90
15765;DHT22;7983;50.744;7.086;2023-05-07T13:43:46;23.30;99.90
15765;DHT22;7983;50.744;7.086;2023-05-07T13:46:12;23.30;99.90
15765;DHT22;7983;50.744;7.086;2023-05-07T13:48:40;23.30;99.90
15765;DHT22;7983;50.744;7.086;2023-05-07T13:51:05;23.40;99.90
15765;DHT22;7983;50.744;7.086;2023-05-07T13:53:33;23.40;99.90
15765;DHT22;7983;50.744;7.086;2023-05-07T13:55:59;23.30;99.90
15765;DHT22;7983;50.744;7.086;2023-05-07T13:58:24;23.30;99.90
15765;DHT22;7983;50.744;7.086;2023-05-07T14:00:50;23.30;99.90
15765;DHT22;7983;50.744;7.086;2023-05-07T14:03:16;23.30;99.90
15765;DHT22;7983;50.744;7.086;2023-05-07T14:05:42;23.20;99.90
15765;DHT22;7983;50.744;7.086;2023-05-07T14:08:15;23.20;99.90
15765;DHT22;7983;50.744;7.086;2023-05-07T14:10:42;23.10;99.90
15765;DHT22;7983;50.744;7.086;2023-05-07T14:13:08;23.10;99.90
15765;DHT22;7983;50.744;7.086;2023-05-07T14:15:34;23.10;99.90
15765;DHT22;7983;50.744;7.086;2023-05-07T14:18:00;23.00;99.90
15765;DHT22;7983;50.744;7.086;2023-05-07T14:20:25;23.00;99.90
15765;DHT22;7983;50.744;7.086;2023-05-07T14:22:51;23.00;99.90
15765;DHT22;7983;50.744;7.086;2023-05-07T14:25:19;23.00;99.90
15765;DHT22;7983;50.744;7.086;2023-05-07T14:27:44;22.90;99.90
15765;DHT22;7983;50.744;7.086;2023-05-07T14:30:10;22.90;99.90
15765;DHT22;7983;50.744;7.086;2023-05-07T14:32:36;22.80;99.90
15765;DHT22;7983;50.744;7.086;2023-05-07T14:35:02;22.80;99.90
15765;DHT22;7983;50.744;7.086;2023-05-07T14:37:30;22.80;99.90
15765;DHT22;7983;50.744;7.086;2023-05-07T14:39:58;22.70;99.90
15765;DHT22;7983;50.744;7.086;2023-05-07T14:42:23;22.70;99.90
15765;DHT22;7983;50.744;7.086;2023-05-07T14:44:51;22.60;99.90
15765;DHT22;7983;50.744;7.086;2023-05-07T14:47:21;22.50;99.90
15765;DHT22;7983;50.744;7.086;2023-05-07T14:49:49;22.40;99.90
15765;DHT22;7983;50.744;7.086;2023-05-07T14:52:15;22.40;99.90
15765;DHT22;7983;50.744;7.086;2023-05-07T14:54:41;22.30;99.90
15765;DHT22;7983;50.744;7.086;2023-05-07T14:57:09;22.30;99.90
15765;DHT22;7983;50.744;7.086;2023-05-07T14:59:39;22.20;99.90
15765;DHT22;7983;50.744;7.086;2023-05-07T15:02:07;22.20;99.90
15765;DHT22;7983;50.744;7.086;2023-05-07T15:04:33;22.20;99.90
15765;DHT22;7983;50.744;7.086;2023-05-07T15:07:04;22.20;99.90
15765;DHT22;7983;50.744;7.086;2023-05-07T15:09:34;22.10;99.90
15765;DHT22;7983;50.744;7.086;2023-05-07T15:12:00;22.10;99.90
15765;DHT22;7983;50.744;7.086;2023-05-07T15:14:29;22.00;99.90
15765;DHT22;7983;50.744;7.086;2023-05-07T15:16:57;21.90;99.90
15765;DHT22;7983;50.744;7.086;2023-05-07T15:19:22;21.80;99.90
15765;DHT22;7983;50.744;7.086;2023-05-07T15:21:52;21.70;99.90
15765;DHT22;7983;50.744;7.086;2023-05-07T15:24:18;21.60;99.90
15765;DHT22;7983;50.744;7.086;2023-05-07T15:26:43;21.50;99.90
15765;DHT22;7983;50.744;7.086;2023-05-07T15:29:09;21.40;99.90
15765;DHT22;7983;50.744;7.086;2023-05-07T15:31:35;21.40;99.90
15765;DHT22;7983;50.744;7.086;2023-05-07T15:34:04;21.30;99.90
15765;DHT22;7983;50.744;7.086;2023-05-07T15:36:31;21.30;99.90
15765;DHT22;7983;50.744;7.086;2023-05-07T15:38:57;21.30;99.90
15765;DHT22;7983;50.744;7.086;2023-05-07T15:41:24;21.20;99.90
15765;DHT22;7983;50.744;7.086;2023-05-07T15:43:51;21.20;99.90
15765;DHT22;7983;50.744;7.086;2023-05-07T15:46:18;21.10;99.90
15765;DHT22;7983;50.744;7.086;2023-05-07T15:48:47;21.10;99.90
15765;DHT22;7983;50.744;7.086;2023-05-07T15:51:12;21.00;99.90
15765;DHT22;7983;50.744;7.086;2023-05-07T15:53:38;21.00;99.90
15765;DHT22;7983;50.744;7.086;2023-05-07T15:56:05;20.90;99.90
15765;DHT22;7983;50.744;7.086;2023-05-07T15:58:31;20.80;99.90
15765;DHT22;7983;50.744;7.086;2023-05-07T16:01:00;20.80;99.90